Time;durP1;ratioP1;P1;durP2;ratioP2;P2;SDS_P1;SDS_P2;PMS_P1;PMS_P2;Temp;Humidity;BMP_temperature;BMP_pressure;BME280_temperature;BME280_humidity;BME280_pressure;Samples;Min_cycle;Max_cycle;Signal;HPM_P1;HPM_P2
2022/01/01 00:01:17;;;;;;;9.35;3.35;;;13.60;99.90;;;;;;4974353;28;20518;-85
2022/01/01 00:03:43;;;;;;;7.05;2.97;;;13.60;99.90;;;;;;4993242;28;20022;-84
2022/01/01 00:06:08;;;;;;;4.47;2.60;;;13.60;99.90;;;;;;4974801;28;20024;-85
2022/01/01 00:08:34;;;;;;;4.47;2.75;;;13.60;99.90;;;;;;4975356;28;20196;-85
2022/01/01 00:11:00;;;;;;;4.93;2.75;;;13.60;99.90;;;;;;4992206;28;20026;-86
2022/01/01 00:13:25;;;;;;;8.57;3.13;;;13.60;99.90;;;;;;4991874;28;20050;-85
2022/01/01 00:15:51;;;;;;;6.72;2.33;;;13.60;99.90;;;;;;4992037;28;20253;-85
2022/01/01 00:18:16;;;;;;;5.57;2.47;;;13.60;99.90;;;;;;4992765;28;20542;-85
2022/01/01 00:20:42;;;;;;;6.82;2.33;;;13.70;99.90;;;;;;4991071;28;20026;-86
2022/01/01 00:23:08;;;;;;;5.53;2.63;;;13.70;99.90;;;;;;4974435;28;20036;-86
2022/01/01 00:25:34;;;;;;;6.38;2.45;;;13.60;99.90;;;;;;4991782;28;20034;-86
2022/01/01 00:27:59;;;;;;;3.15;2.10;;;13.70;99.90;;;;;;4973886;28;20463;-85
2022/01/01 00:30:25;;;;;;;6.70;2.45;;;13.70;99.90;;;;;;4992526;28;20030;-86
2022/01/01 00:32:54;;;;;;;8.10;2.35;;;13.70;99.90;;;;;;4996308;28;20034;-87
2022/01/01 00:35:19;;;;;;;5.63;2.40;;;13.70;99.90;;;;;;4996937;28;20033;-85
2022/01/01 00:37:45;;;;;;;5.68;2.72;;;13.70;99.90;;;;;;4997245;28;20031;-85
2022/01/01 00:40:12;;;;;;;7.13;2.30;;;13.70;99.90;;;;;;4979428;28;20486;-86
2022/01/01 00:42:37;;;;;;;3.63;2.22;;;13.70;99.90;;;;;;4996789;28;20056;-85
2022/01/01 00:45:03;;;;;;;4.30;2.13;;;13.60;99.90;;;;;;4997014;28;20025;-86
2022/01/01 00:47:34;;;;;;;9.73;2.60;;;13.60;99.90;;;;;;4997031;28;20033;-85
2022/01/01 00:50:00;;;;;;;3.17;1.60;;;13.60;99.90;;;;;;4996947;28;20054;-85
2022/01/01 00:52:25;;;;;;;4.80;2.53;;;13.60;99.90;;;;;;4996412;28;20073;-87
2022/01/01 00:55:00;;;;;;;6.43;2.42;;;13.60;99.90;;;;;;4979590;28;20022;-86
2022/01/01 00:57:26;;;;;;;4.38;2.10;;;13.50;99.90;;;;;;4992382;28;20518;-85
2022/01/01 00:59:51;;;;;;;14.50;3.38;;;13.50;99.90;;;;;;4978763;28;20125;-85
2022/01/01 01:02:20;;;;;;;4.63;1.75;;;13.60;99.90;;;;;;4996335;28;20050;-86
2022/01/01 01:04:45;;;;;;;4.97;2.40;;;13.50;99.90;;;;;;4996669;28;20026;-87
2022/01/01 01:07:12;;;;;;;4.45;1.83;;;13.50;99.90;;;;;;4996404;28;20034;-86
2022/01/01 01:09:38;;;;;;;12.82;2.88;;;13.50;99.90;;;;;;4996593;28;20069;-85
2022/01/01 01:12:04;;;;;;;4.85;2.78;;;13.50;99.90;;;;;;4979235;28;20046;-86
2022/01/01 01:14:39;;;;;;;8.82;2.60;;;13.50;99.90;;;;;;4978890;28;20032;-85
2022/01/01 01:17:06;;;;;;;5.75;2.80;;;13.40;99.90;;;;;;4996497;28;20042;-85
2022/01/01 01:19:32;;;;;;;7.40;2.78;;;13.40;99.90;;;;;;4978584;28;20687;-86
2022/01/01 01:22:14;;;;;;;9.52;3.05;;;13.40;99.90;;;;;;4995802;28;20113;-86
2022/01/01 01:24:40;;;;;;;6.05;2.90;;;13.40;99.90;;;;;;4996033;28;20030;-85
2022/01/01 01:27:06;;;;;;;4.25;2.70;;;13.30;99.90;;;;;;4996037;28;20042;-85
2022/01/01 01:29:45;;;;;;;7.15;3.15;;;13.30;99.90;;;;;;4996073;28;20559;-86
2022/01/01 01:32:10;;;;;;;3.90;2.40;;;13.30;99.90;;;;;;4996027;28;20113;-85
2022/01/01 01:34:36;;;;;;;7.30;3.08;;;13.30;99.90;;;;;;4995801;28;20060;-85
2022/01/01 01:37:06;;;;;;;9.13;3.00;;;13.30;99.90;;;;;;4978621;28;20034;-86
2022/01/01 01:39:31;;;;;;;10.15;2.92;;;13.30;99.90;;;;;;4995939;28;20045;-86
2022/01/01 01:41:57;;;;;;;5.88;2.75;;;13.30;99.90;;;;;;4995095;28;20379;-84
2022/01/01 01:44:28;;;;;;;11.75;3.38;;;13.30;99.90;;;;;;4977647;28;20557;-85
2022/01/01 01:47:03;;;;;;;6.72;3.00;;;13.30;99.90;;;;;;4995877;28;20462;-85
2022/01/01 01:49:29;;;;;;;10.25;3.45;;;13.30;99.90;;;;;;4995622;28;20018;-85
2022/01/01 01:51:56;;;;;;;6.68;3.30;;;13.30;99.90;;;;;;4995413;28;20038;-86
2022/01/01 01:54:23;;;;;;;4.68;2.60;;;13.30;99.90;;;;;;4995505;28;20438;-86
2022/01/01 01:56:50;;;;;;;4.95;3.10;;;13.30;99.90;;;;;;4995742;28;20027;-86
2022/01/01 01:59:16;;;;;;;19.38;4.43;;;13.30;99.90;;;;;;4995453;28;20073;-86
2022/01/01 02:01:42;;;;;;;9.07;3.40;;;13.30;99.90;;;;;;4995613;28;20034;-85
2022/01/01 02:04:09;;;;;;;7.15;2.60;;;13.30;99.90;;;;;;4995490;28;20026;-85
2022/01/01 02:06:36;;;;;;;10.32;3.72;;;13.30;99.90;;;;;;4994942;28;20034;-86
2022/01/01 02:09:02;;;;;;;8.02;3.30;;;13.30;99.90;;;;;;4995500;28;20085;-86
2022/01/01 02:11:28;;;;;;;4.55;2.90;;;13.30;99.90;;;;;;4995287;28;20391;-86
2022/01/01 02:14:24;;;;;;;6.30;2.88;;;13.30;99.90;;;;;;4995387;28;20026;-86
2022/01/01 02:17:23;;;;;;;8.10;3.20;;;13.30;99.90;;;;;;4995368;28;20018;-86
2022/01/01 02:19:50;;;;;;;7.28;3.55;;;13.30;99.90;;;;;;4916342;29;20032;-84
2022/01/01 02:22:16;;;;;;;9.85;3.63;;;13.30;99.90;;;;;;4994922;28;21133;-84
2022/01/01 02:24:42;;;;;;;5.72;3.10;;;13.30;99.90;;;;;;4995023;28;20054;-84
2022/01/01 02:27:08;;;;;;;8.07;3.17;;;13.30;99.90;;;;;;4977546;28;20053;-84
2022/01/01 02:29:47;;;;;;;6.57;3.55;;;13.30;99.90;;;;;;4995067;28;20034;-84
2022/01/01 02:32:15;;;;;;;13.88;3.72;;;13.30;99.90;;;;;;4977459;28;20069;-83
2022/01/01 02:34:42;;;;;;;7.03;3.88;;;13.30;99.90;;;;;;4994940;28;20035;-84
2022/01/01 02:37:08;;;;;;;10.60;3.95;;;13.30;99.90;;;;;;4994553;28;20065;-84
2022/01/01 02:39:34;;;;;;;8.07;3.95;;;13.20;99.90;;;;;;4994696;28;20058;-84
2022/01/01 02:42:00;;;;;;;8.48;4.20;;;13.30;99.90;;;;;;4994863;28;20026;-85
2022/01/01 02:44:27;;;;;;;11.60;4.10;;;13.30;99.90;;;;;;4994501;28;20522;-84
2022/01/01 02:46:59;;;;;;;10.90;4.53;;;13.30;99.90;;;;;;4994794;28;20018;-84
2022/01/01 02:49:25;;;;;;;7.50;4.20;;;13.20;99.90;;;;;;4977117;28;20105;-84
2022/01/01 02:51:50;;;;;;;11.98;3.65;;;13.20;99.90;;;;;;4994365;28;20165;-84
2022/01/01 02:54:27;;;;;;;8.88;4.32;;;13.20;99.90;;;;;;4994230;28;20387;-84
2022/01/01 02:56:52;;;;;;;8.38;3.72;;;13.10;99.90;;;;;;4994297;28;20030;-84
2022/01/01 02:59:18;;;;;;;9.30;4.13;;;13.10;99.90;;;;;;4994290;28;20029;-84
2022/01/01 03:01:49;;;;;;;9.85;4.13;;;13.10;99.90;;;;;;4976944;28;20411;-85
2022/01/01 03:04:14;;;;;;;11.20;4.28;;;13.20;99.90;;;;;;4994706;28;20864;-84
2022/01/01 03:06:41;;;;;;;11.48;5.47;;;13.10;99.90;;;;;;4993747;28;20036;-84
2022/01/01 03:09:07;;;;;;;10.23;5.18;;;13.10;99.90;;;;;;4976937;28;20076;-84
2022/01/01 03:11:33;;;;;;;11.57;4.47;;;13.10;99.90;;;;;;4994246;28;20091;-84
2022/01/01 03:13:59;;;;;;;12.32;5.13;;;13.10;99.90;;;;;;4994193;28;20086;-84
2022/01/01 03:16:24;;;;;;;16.23;5.18;;;13.10;99.90;;;;;;4994182;28;20467;-84
2022/01/01 03:18:52;;;;;;;8.75;4.38;;;13.10;99.90;;;;;;4976721;28;20033;-84
2022/01/01 03:21:17;;;;;;;8.45;3.60;;;13.10;99.90;;;;;;4993359;28;20018;-84
2022/01/01 03:23:43;;;;;;;10.43;4.38;;;13.10;99.90;;;;;;4993129;28;20033;-84
2022/01/01 03:26:09;;;;;;;7.95;4.15;;;13.10;99.90;;;;;;4993927;28;20053;-84
2022/01/01 03:28:34;;;;;;;9.57;4.03;;;13.10;99.90;;;;;;4993945;28;20065;-83
2022/01/01 03:31:05;;;;;;;10.35;4.28;;;13.00;99.90;;;;;;4976665;28;20382;-84
2022/01/01 03:33:31;;;;;;;8.50;4.20;;;13.10;99.90;;;;;;4993886;28;20474;-84
2022/01/01 03:35:56;;;;;;;17.65;4.50;;;13.00;99.90;;;;;;4993407;28;20072;-83
2022/01/01 03:38:29;;;;;;;7.75;4.32;;;13.10;99.90;;;;;;4976064;28;20023;-84
2022/01/01 03:40:55;;;;;;;11.52;5.18;;;13.10;99.90;;;;;;4993905;28;20026;-83
2022/01/01 03:43:20;;;;;;;8.00;4.10;;;13.10;99.90;;;;;;4993397;28;20037;-83
2022/01/01 03:45:47;;;;;;;14.25;4.47;;;13.10;99.90;;;;;;4993731;28;20475;-84
2022/01/01 03:48:13;;;;;;;13.90;4.85;;;13.10;99.90;;;;;;4993608;28;20034;-84
2022/01/01 03:50:38;;;;;;;13.80;5.22;;;13.10;99.90;;;;;;4975707;28;20026;-83
2022/01/01 03:53:09;;;;;;;11.48;4.88;;;13.10;99.90;;;;;;4993763;28;20030;-84
2022/01/01 03:55:35;;;;;;;17.55;5.85;;;13.10;99.90;;;;;;4993642;28;20109;-84
2022/01/01 03:58:00;;;;;;;12.88;5.00;;;13.10;99.90;;;;;;4993442;28;20184;-84
2022/01/01 04:00:28;;;;;;;11.98;4.90;;;13.10;99.90;;;;;;4976018;28;20018;-84
2022/01/01 04:02:54;;;;;;;13.13;4.50;;;13.10;99.90;;;;;;4993717;28;20026;-83
2022/01/01 04:05:19;;;;;;;8.82;4.80;;;13.10;99.90;;;;;;4992399;28;20022;-83
2022/01/01 04:07:47;;;;;;;10.23;4.40;;;13.10;99.90;;;;;;4993640;28;20453;-83
2022/01/01 04:10:12;;;;;;;15.52;5.00;;;13.10;99.90;;;;;;4975742;28;20206;-84
2022/01/01 04:12:38;;;;;;;11.75;4.85;;;13.10;99.90;;;;;;4993093;28;20109;-83
2022/01/01 04:15:06;;;;;;;9.82;4.72;;;13.10;99.90;;;;;;4992981;28;20014;-83
2022/01/01 04:17:36;;;;;;;11.50;4.93;;;13.10;99.90;;;;;;4976097;28;20029;-84
2022/01/01 04:20:02;;;;;;;12.38;5.63;;;13.00;99.90;;;;;;4992372;28;20027;-83
2022/01/01 04:22:28;;;;;;;12.52;7.05;;;13.00;99.90;;;;;;4975645;28;20106;-84
2022/01/01 04:24:53;;;;;;;15.95;6.00;;;13.10;99.90;;;;;;4993877;28;20122;-84
2022/01/01 04:27:19;;;;;;;16.23;6.50;;;13.00;99.90;;;;;;4992837;28;20041;-84
2022/01/01 04:29:48;;;;;;;15.40;6.13;;;13.00;99.90;;;;;;4993070;28;20030;-84
2022/01/01 04:32:16;;;;;;;12.82;6.07;;;13.00;99.90;;;;;;4992696;28;20034;-83
2022/01/01 04:34:42;;;;;;;18.13;7.18;;;13.00;99.90;;;;;;4993121;28;20026;-84
2022/01/01 04:37:15;;;;;;;18.15;6.63;;;13.00;99.90;;;;;;4992973;28;20109;-84
2022/01/01 04:39:41;;;;;;;15.05;7.63;;;12.90;99.90;;;;;;4993157;28;20026;-84
2022/01/01 04:42:07;;;;;;;15.02;6.82;;;12.90;99.90;;;;;;4992730;28;20494;-84
2022/01/01 04:44:32;;;;;;;17.75;7.30;;;12.90;99.90;;;;;;4975312;28;20141;-83
2022/01/01 04:46:58;;;;;;;19.08;8.18;;;13.00;99.90;;;;;;4993002;28;20035;-84
2022/01/01 04:49:24;;;;;;;20.00;7.57;;;12.90;99.90;;;;;;4993099;28;20026;-83
2022/01/01 04:51:49;;;;;;;18.20;8.13;;;12.90;99.90;;;;;;4975166;28;20485;-84
2022/01/01 04:54:21;;;;;;;16.48;7.63;;;12.90;99.90;;;;;;4992837;28;20038;-84
2022/01/01 04:56:48;;;;;;;15.95;7.90;;;12.90;99.90;;;;;;4992884;28;20030;-84
2022/01/01 04:59:16;;;;;;;22.42;9.23;;;12.90;99.90;;;;;;4992546;28;20054;-84
2022/01/01 05:01:42;;;;;;;22.35;8.23;;;12.90;99.90;;;;;;4992819;28;20515;-84
2022/01/01 05:04:08;;;;;;;22.02;7.30;;;12.90;99.90;;;;;;4975407;28;20498;-84
2022/01/01 05:06:40;;;;;;;16.83;6.75;;;12.90;99.90;;;;;;4992406;28;20022;-84
2022/01/01 05:09:06;;;;;;;19.30;6.88;;;12.90;99.90;;;;;;4992752;28;20030;-84
2022/01/01 05:11:31;;;;;;;17.80;8.75;;;12.90;99.90;;;;;;4992824;28;20430;-85
2022/01/01 05:13:59;;;;;;;18.50;7.43;;;12.90;99.90;;;;;;4992712;28;20034;-84
2022/01/01 05:16:25;;;;;;;14.45;7.85;;;12.90;99.90;;;;;;4992761;28;20048;-84
2022/01/01 05:18:52;;;;;;;31.88;8.15;;;12.90;99.90;;;;;;4996484;28;20030;-85
2022/01/01 05:21:17;;;;;;;17.08;7.70;;;12.90;99.90;;;;;;4995990;28;20022;-84
2022/01/01 05:23:43;;;;;;;20.00;8.23;;;12.90;99.90;;;;;;4996190;28;20093;-84
2022/01/01 05:26:13;;;;;;;18.60;8.77;;;12.90;99.90;;;;;;4996346;28;20543;-84
2022/01/01 05:28:38;;;;;;;17.83;7.88;;;12.90;99.90;;;;;;4996104;28;20036;-84
2022/01/01 05:31:04;;;;;;;18.80;8.35;;;12.90;99.90;;;;;;4996025;28;20109;-84
2022/01/01 05:33:39;;;;;;;22.17;8.38;;;12.90;99.90;;;;;;4996159;28;20065;-84
2022/01/01 05:36:05;;;;;;;18.52;8.00;;;12.90;99.90;;;;;;4995804;28;20106;-83
2022/01/01 05:38:30;;;;;;;16.27;8.57;;;12.80;99.90;;;;;;4995858;28;20102;-84
2022/01/01 05:40:56;;;;;;;19.08;7.70;;;12.80;99.90;;;;;;4996019;28;20034;-83
2022/01/01 05:43:22;;;;;;;22.25;10.48;;;12.80;99.90;;;;;;4995254;28;20067;-84
2022/01/01 05:45:47;;;;;;;14.48;6.70;;;12.80;99.90;;;;;;4995963;28;20487;-84
2022/01/01 05:48:13;;;;;;;17.20;7.75;;;12.80;99.90;;;;;;4995912;28;20026;-84
2022/01/01 05:50:44;;;;;;;20.17;7.72;;;12.90;99.90;;;;;;4978052;28;20058;-84
2022/01/01 05:53:10;;;;;;;21.52;7.95;;;12.80;99.90;;;;;;4995502;28;20030;-84
2022/01/01 05:55:35;;;;;;;16.60;6.60;;;12.80;99.90;;;;;;4995989;28;20029;-84
2022/01/01 05:58:14;;;;;;;16.85;6.82;;;12.80;99.90;;;;;;4995583;28;20034;-84
2022/01/01 06:00:41;;;;;;;16.17;6.90;;;12.80;99.90;;;;;;4995575;28;20042;-84
2022/01/01 06:03:06;;;;;;;18.35;7.10;;;12.90;99.90;;;;;;4995224;28;20023;-84
2022/01/01 06:05:32;;;;;;;12.80;5.57;;;12.80;99.90;;;;;;4995264;28;20111;-84
2022/01/01 06:07:59;;;;;;;17.88;5.80;;;12.90;99.90;;;;;;4981119;28;20018;-85
2022/01/01 06:10:30;;;;;;;13.30;5.80;;;12.80;99.90;;;;;;5001990;28;20034;-84
2022/01/01 06:12:56;;;;;;;19.27;6.43;;;12.80;99.90;;;;;;4995422;28;20392;-84
2022/01/01 06:15:22;;;;;;;17.42;5.95;;;12.80;99.90;;;;;;4995331;28;20023;-85
2022/01/01 06:17:57;;;;;;;17.38;6.10;;;12.80;99.90;;;;;;4995148;28;20033;-84
2022/01/01 06:20:23;;;;;;;15.60;5.53;;;12.80;99.90;;;;;;4994843;28;20077;-84
2022/01/01 06:22:49;;;;;;;18.08;6.18;;;12.80;99.90;;;;;;4995335;28;20422;-84
2022/01/01 06:25:15;;;;;;;21.27;6.00;;;12.80;99.90;;;;;;4995128;28;20102;-83
2022/01/01 06:27:40;;;;;;;18.75;5.95;;;12.80;99.90;;;;;;4995011;28;20109;-84
2022/01/01 06:30:06;;;;;;;15.18;5.50;;;12.80;99.90;;;;;;4994657;28;20122;-84
2022/01/01 06:32:32;;;;;;;14.82;4.88;;;12.80;99.90;;;;;;4994896;28;20030;-83
2022/01/01 06:34:59;;;;;;;14.95;5.40;;;12.70;99.90;;;;;;4994567;28;20570;-84
2022/01/01 06:37:25;;;;;;;17.20;5.30;;;12.70;99.90;;;;;;4977659;28;20077;-84
2022/01/01 06:39:51;;;;;;;17.08;5.55;;;12.70;99.90;;;;;;4994966;28;20026;-84
2022/01/01 06:42:17;;;;;;;20.42;5.70;;;12.60;99.90;;;;;;4994786;28;20022;-84
2022/01/01 06:44:48;;;;;;;14.88;5.88;;;12.60;99.90;;;;;;4977081;28;20042;-84
2022/01/01 06:47:13;;;;;;;26.95;8.15;;;12.70;99.90;;;;;;4994670;28;20022;-84
2022/01/01 06:49:39;;;;;;;18.67;6.97;;;12.60;99.90;;;;;;4994410;28;20119;-84
2022/01/01 06:52:05;;;;;;;13.23;6.07;;;12.60;99.90;;;;;;4994319;28;20027;-84
2022/01/01 06:54:30;;;;;;;12.98;5.97;;;12.50;99.90;;;;;;4994544;28;20041;-84
2022/01/01 06:56:56;;;;;;;13.35;5.10;;;12.50;99.90;;;;;;4994514;28;20030;-84
2022/01/01 06:59:23;;;;;;;10.85;5.85;;;12.40;99.90;;;;;;4976880;28;20390;-84
2022/01/01 07:01:49;;;;;;;15.35;5.40;;;12.40;99.90;;;;;;4976678;28;20022;-84
2022/01/01 07:04:14;;;;;;;17.40;5.75;;;12.40;99.90;;;;;;4993997;28;20031;-84
2022/01/01 07:06:43;;;;;;;15.10;5.40;;;12.40;99.90;;;;;;4976746;28;20053;-84
2022/01/01 07:09:09;;;;;;;13.45;5.05;;;12.40;99.90;;;;;;4976328;28;20057;-84
2022/01/01 07:11:35;;;;;;;12.25;5.78;;;12.40;99.90;;;;;;4976459;28;20065;-84
2022/01/01 07:14:04;;;;;;;13.90;6.05;;;12.40;99.90;;;;;;4994493;28;20085;-83
2022/01/01 07:16:29;;;;;;;12.82;5.30;;;12.40;99.90;;;;;;4994269;28;20070;-84
2022/01/01 07:18:55;;;;;;;32.95;7.38;;;12.40;99.90;;;;;;4993755;28;20019;-83
2022/01/01 07:21:34;;;;;;;23.23;8.13;;;12.40;99.90;;;;;;4993833;28;20478;-84
2022/01/01 07:24:00;;;;;;;21.75;6.35;;;12.50;99.90;;;;;;4993960;28;20022;-85
2022/01/01 07:26:25;;;;;;;19.88;6.60;;;12.40;99.90;;;;;;4976416;28;20029;-83
2022/01/01 07:28:57;;;;;;;25.83;7.10;;;12.50;99.90;;;;;;4994145;28;20125;-84
2022/01/01 07:31:23;;;;;;;31.92;7.85;;;12.50;99.90;;;;;;4976341;28;20497;-84
2022/01/01 07:33:49;;;;;;;20.40;6.25;;;12.50;99.90;;;;;;4993913;28;20068;-84
2022/01/01 07:36:14;;;;;;;17.67;6.60;;;12.50;99.90;;;;;;4993457;28;20027;-83
2022/01/01 07:38:40;;;;;;;16.70;7.20;;;12.50;99.90;;;;;;4993066;28;20038;-84
2022/01/01 07:41:06;;;;;;;17.60;6.35;;;12.50;99.90;;;;;;4991004;28;20026;-83
2022/01/01 07:43:32;;;;;;;18.17;6.53;;;12.50;99.90;;;;;;4991491;28;20058;-84
2022/01/01 07:45:57;;;;;;;17.90;6.43;;;12.50;99.90;;;;;;4987617;28;20030;-84
2022/01/01 07:48:23;;;;;;;21.70;9.25;;;12.40;99.90;;;;;;4976157;28;20022;-84
2022/01/01 07:50:49;;;;;;;16.52;6.72;;;12.40;99.90;;;;;;4993264;28;20022;-83
2022/01/01 07:53:15;;;;;;;25.77;6.82;;;12.40;99.90;;;;;;4993254;28;20037;-83
2022/01/01 07:55:41;;;;;;;25.05;7.03;;;12.40;99.90;;;;;;4992981;28;20034;-83
2022/01/01 07:58:08;;;;;;;20.08;6.70;;;12.40;99.90;;;;;;4996923;28;20037;-83
2022/01/01 08:00:41;;;;;;;18.63;6.00;;;12.40;99.90;;;;;;4999484;28;20356;-83
2022/01/01 08:03:09;;;;;;;24.15;7.35;;;12.50;99.90;;;;;;4993091;28;20078;-83
2022/01/01 08:05:38;;;;;;;18.90;6.93;;;12.50;99.90;;;;;;4993093;28;20394;-83
2022/01/01 08:08:04;;;;;;;23.38;7.30;;;12.50;99.90;;;;;;4975927;28;20098;-83
2022/01/01 08:10:31;;;;;;;19.48;6.55;;;12.50;99.90;;;;;;4975680;28;20429;-83
2022/01/01 08:12:57;;;;;;;24.13;7.90;;;12.60;99.90;;;;;;4993358;28;20475;-83
2022/01/01 08:15:23;;;;;;;24.83;7.57;;;12.60;99.90;;;;;;4993401;28;20557;-83
2022/01/01 08:17:49;;;;;;;16.58;7.22;;;12.70;99.90;;;;;;4993047;28;20035;-84
2022/01/01 08:20:14;;;;;;;20.73;6.40;;;12.60;99.90;;;;;;4993142;28;20108;-83
2022/01/01 08:22:41;;;;;;;18.15;5.82;;;12.70;99.90;;;;;;4992921;28;20022;-83
2022/01/01 08:25:07;;;;;;;28.40;7.28;;;12.70;99.90;;;;;;4993202;28;20033;-83
2022/01/01 08:27:35;;;;;;;20.63;6.82;;;12.80;99.90;;;;;;4993138;28;20027;-83
2022/01/01 08:30:00;;;;;;;20.75;7.40;;;12.70;99.90;;;;;;4992329;28;20034;-84
2022/01/01 08:32:26;;;;;;;20.58;7.55;;;12.80;99.90;;;;;;4974664;28;20363;-84
2022/01/01 08:34:52;;;;;;;24.33;6.63;;;12.80;99.90;;;;;;4992473;28;20045;-83
2022/01/01 08:37:18;;;;;;;17.42;6.75;;;12.80;99.90;;;;;;4991664;28;20157;-84
2022/01/01 08:39:43;;;;;;;58.25;17.60;;;12.80;99.90;;;;;;4992483;28;20030;-84
2022/01/01 08:42:12;;;;;;;28.85;8.55;;;12.80;99.90;;;;;;4974809;28;20027;-84
2022/01/01 08:44:37;;;;;;;20.48;7.35;;;12.80;99.90;;;;;;4992263;28;20039;-84
2022/01/01 08:47:04;;;;;;;21.90;6.70;;;12.80;99.90;;;;;;4992324;28;20034;-83
2022/01/01 08:49:29;;;;;;;29.55;6.95;;;12.80;99.90;;;;;;4974428;28;20033;-83
2022/01/01 08:51:56;;;;;;;18.88;6.13;;;12.90;99.90;;;;;;4975601;28;20486;-84
2022/01/01 08:54:22;;;;;;;25.02;7.63;;;12.90;99.90;;;;;;4995989;28;20037;-84
2022/01/01 08:56:47;;;;;;;23.77;6.70;;;12.90;99.90;;;;;;4996292;28;20106;-83
2022/01/01 08:59:13;;;;;;;19.52;6.85;;;13.00;99.90;;;;;;4996017;28;20065;-83
2022/01/01 09:01:38;;;;;;;15.85;6.18;;;13.00;99.90;;;;;;4995368;28;20053;-84
2022/01/01 09:04:05;;;;;;;18.42;6.03;;;13.00;99.90;;;;;;4995388;28;20113;-83
2022/01/01 09:06:31;;;;;;;27.30;6.68;;;13.00;99.90;;;;;;4995711;28;20073;-83
2022/01/01 09:08:57;;;;;;;14.13;5.55;;;13.00;99.90;;;;;;4995410;28;20466;-84
2022/01/01 09:11:23;;;;;;;25.65;7.53;;;13.00;99.90;;;;;;4978358;28;20030;-84
2022/01/01 09:13:49;;;;;;;27.13;6.53;;;13.00;99.90;;;;;;4996130;28;20129;-85
2022/01/01 09:16:18;;;;;;;16.15;5.43;;;13.00;99.90;;;;;;4996054;28;20033;-85
2022/01/01 09:18:46;;;;;;;20.95;5.72;;;13.00;99.90;;;;;;4995220;28;20467;-85
2022/01/01 09:21:13;;;;;;;21.67;7.38;;;13.00;99.90;;;;;;4995687;28;20061;-85
2022/01/01 09:23:39;;;;;;;15.32;5.65;;;13.00;99.90;;;;;;4995732;28;20030;-85
2022/01/01 09:26:04;;;;;;;22.15;5.65;;;13.00;99.90;;;;;;4977890;28;20057;-85
2022/01/01 09:28:32;;;;;;;17.80;5.53;;;13.00;99.90;;;;;;4995785;28;20069;-85
2022/01/01 09:30:59;;;;;;;23.77;5.43;;;13.10;99.90;;;;;;4995569;28;20050;-85
2022/01/01 09:33:29;;;;;;;19.10;5.40;;;13.10;99.90;;;;;;4977669;28;20077;-85
2022/01/01 09:35:56;;;;;;;26.35;6.75;;;13.10;99.90;;;;;;4995300;28;20030;-85
2022/01/01 09:38:22;;;;;;;20.55;5.35;;;13.10;99.90;;;;;;4995174;28;20038;-85
2022/01/01 09:40:48;;;;;;;14.40;4.90;;;13.20;99.90;;;;;;4995188;28;20471;-84
2022/01/01 09:43:14;;;;;;;20.67;5.47;;;13.10;99.90;;;;;;4995271;28;20026;-85
2022/01/01 09:45:41;;;;;;;20.33;5.95;;;13.20;99.90;;;;;;4977480;28;20030;-85
2022/01/01 09:48:07;;;;;;;15.90;4.32;;;13.20;99.90;;;;;;4995080;28;20142;-85
2022/01/01 09:50:34;;;;;;;16.92;4.93;;;13.20;99.90;;;;;;4976909;28;20046;-84
2022/01/01 09:53:00;;;;;;;18.42;5.97;;;13.20;99.90;;;;;;4977170;28;20037;-84
2022/01/01 09:55:26;;;;;;;23.20;5.22;;;13.20;99.90;;;;;;4977149;28;20023;-85
2022/01/01 09:57:51;;;;;;;14.50;4.22;;;13.20;99.90;;;;;;4994709;28;20109;-85
2022/01/01 10:00:17;;;;;;;21.10;4.93;;;13.20;99.90;;;;;;4994589;28;20242;-84
2022/01/01 10:02:42;;;;;;;18.20;5.55;;;13.20;99.90;;;;;;4994798;28;20030;-84
2022/01/01 10:05:08;;;;;;;21.83;4.97;;;13.30;99.90;;;;;;4993736;28;20073;-85
2022/01/01 10:07:34;;;;;;;17.00;4.25;;;13.20;99.90;;;;;;4977124;28;20032;-85
2022/01/01 10:10:20;;;;;;;12.98;3.80;;;13.30;99.90;;;;;;4994199;28;20113;-84
2022/01/01 10:12:46;;;;;;;21.95;4.63;;;13.30;99.90;;;;;;4994879;28;20383;-85
2022/01/01 10:15:12;;;;;;;18.15;4.38;;;13.30;99.90;;;;;;4994778;28;20037;-85
2022/01/01 10:17:38;;;;;;;20.40;4.80;;;13.30;99.90;;;;;;4994343;28;20077;-85
2022/01/01 10:20:05;;;;;;;14.23;3.95;;;13.20;99.90;;;;;;4976777;28;20026;-85
2022/01/01 10:22:31;;;;;;;11.27;4.03;;;13.30;99.90;;;;;;4994257;28;20077;-84
2022/01/01 10:27:59;;;;;;;12.75;4.03;;;13.30;99.90;;;;;;4995028;28;20116;-85
2022/01/01 10:30:31;;;;;;;19.85;4.85;;;13.30;99.90;;;;;;4994851;28;20112;-85
2022/01/01 10:33:11;;;;;;;12.13;4.90;;;13.30;99.90;;;;;;4993682;28;20022;-85
2022/01/01 10:35:40;;;;;;;17.15;4.95;;;13.30;99.90;;;;;;4993938;28;20418;-85
2022/01/01 10:38:14;;;;;;;17.90;4.88;;;13.30;99.90;;;;;;4994093;28;20042;-85
2022/01/01 10:40:41;;;;;;;17.10;4.40;;;13.30;99.90;;;;;;4993756;28;20026;-85
2022/01/01 10:43:06;;;;;;;17.27;6.05;;;13.30;99.90;;;;;;4993853;28;20033;-85
2022/01/01 10:45:41;;;;;;;22.48;5.35;;;13.30;99.90;;;;;;4994176;28;20105;-84
2022/01/01 10:48:20;;;;;;;14.77;4.90;;;13.30;99.90;;;;;;4993337;28;20471;-85
2022/01/01 10:50:47;;;;;;;22.48;6.25;;;13.30;99.90;;;;;;4994103;28;20378;-85
2022/01/01 10:53:27;;;;;;;22.10;6.55;;;13.30;99.90;;;;;;4993710;28;20022;-84
2022/01/01 10:55:58;;;;;;;19.05;5.03;;;13.40;99.90;;;;;;5001723;28;20042;-85
2022/01/01 10:58:29;;;;;;;22.90;5.18;;;13.30;99.90;;;;;;4977083;28;20030;-84
2022/01/01 11:01:04;;;;;;;22.73;5.97;;;13.30;99.90;;;;;;4994141;28;20117;-85
2022/01/01 11:03:36;;;;;;;17.73;4.68;;;13.30;99.90;;;;;;4994115;28;20097;-85
2022/01/01 11:06:10;;;;;;;18.65;4.68;;;13.30;99.90;;;;;;4993506;28;20056;-85
2022/01/01 11:08:38;;;;;;;24.05;4.93;;;13.30;99.90;;;;;;4994422;28;20431;-85
2022/01/01 11:11:04;;;;;;;15.95;5.05;;;13.30;99.90;;;;;;4976701;28;20034;-84
2022/01/01 11:13:48;;;;;;;16.65;4.68;;;13.30;99.90;;;;;;4994208;28;20439;-85
2022/01/01 11:16:16;;;;;;;16.45;4.55;;;13.30;99.90;;;;;;4976769;28;20058;-84
2022/01/01 11:18:44;;;;;;;14.05;4.72;;;13.30;99.90;;;;;;4990553;28;20306;-84
2022/01/01 11:21:13;;;;;;;17.08;4.68;;;13.40;99.90;;;;;;4988225;28;20019;-84
2022/01/01 11:23:40;;;;;;;21.55;5.18;;;13.40;99.90;;;;;;4993707;28;20026;-85
2022/01/01 11:26:07;;;;;;;17.33;4.95;;;13.40;99.90;;;;;;4993412;28;20038;-84
2022/01/01 11:28:36;;;;;;;21.77;5.50;;;13.40;99.90;;;;;;4994152;28;20034;-84
2022/01/01 11:31:12;;;;;;;19.15;4.95;;;13.40;99.90;;;;;;4959924;28;20038;-84
2022/01/01 11:33:43;;;;;;;;;;;13.40;99.90;;;;;;4993399;28;21068;-85
2022/01/01 11:36:22;;;;;;;20.17;5.35;;;13.50;99.90;;;;;;4993489;28;20004;-85
2022/01/01 11:38:48;;;;;;;11.38;4.82;;;13.40;99.90;;;;;;4985880;28;20030;-85
2022/01/01 11:41:18;;;;;;;20.40;5.03;;;13.40;99.90;;;;;;4993046;28;20026;-85
2022/01/01 11:43:51;;;;;;;15.80;4.47;;;13.50;99.90;;;;;;4993153;28;20042;-85
2022/01/01 11:49:36;;;;;;;13.05;4.50;;;13.50;99.90;;;;;;4993498;28;20037;-84
2022/01/01 11:52:03;;;;;;;22.65;5.88;;;13.60;99.90;;;;;;4993091;28;20033;-85
2022/01/01 11:54:35;;;;;;;16.35;5.13;;;13.60;99.90;;;;;;4993271;28;20045;-85
2022/01/01 11:57:20;;;;;;;17.48;5.85;;;13.60;99.90;;;;;;4992959;28;20367;-84
2022/01/01 11:59:50;;;;;;;12.20;4.15;;;13.70;99.90;;;;;;4992664;28;20077;-84
2022/01/01 12:02:18;;;;;;;19.52;4.97;;;13.70;99.90;;;;;;4991695;28;20054;-84
2022/01/01 12:04:50;;;;;;;17.60;5.18;;;13.70;99.90;;;;;;4992986;28;20050;-84
2022/01/01 12:07:15;;;;;;;17.75;4.60;;;13.60;99.90;;;;;;4993236;28;20034;-85
2022/01/01 12:10:09;;;;;;;11.65;4.13;;;13.60;99.90;;;;;;4993257;28;20034;-86
2022/01/01 12:13:01;;;;;;;19.70;5.28;;;13.60;99.90;;;;;;4971279;28;20042;-84
2022/01/01 12:15:36;;;;;;;16.00;4.55;;;13.60;99.90;;;;;;4993233;28;20030;-84
2022/01/01 12:18:20;;;;;;;15.43;4.45;;;13.60;99.90;;;;;;4975855;28;20038;-84
2022/01/01 12:20:57;;;;;;;19.02;4.78;;;13.50;99.90;;;;;;4993295;28;20093;-84
2022/01/01 12:23:27;;;;;;;17.05;5.10;;;13.50;99.90;;;;;;4993455;28;20046;-84
2022/01/01 12:25:54;;;;;;;19.27;4.85;;;13.50;99.90;;;;;;4975667;28;20438;-85
2022/01/01 12:28:36;;;;;;;16.50;4.78;;;13.50;99.90;;;;;;5017650;28;20109;-84
2022/01/01 12:31:15;;;;;;;17.17;4.80;;;13.50;99.90;;;;;;5003178;28;20097;-85
2022/01/01 12:33:42;;;;;;;20.13;5.18;;;13.40;99.90;;;;;;4998706;28;20437;-85
2022/01/01 12:36:26;;;;;;;17.95;5.05;;;13.50;99.90;;;;;;5008077;28;20038;-85
2022/01/01 12:38:54;;;;;;;20.92;5.75;;;13.40;99.90;;;;;;4981631;28;20042;-84
2022/01/01 12:41:22;;;;;;;15.57;4.78;;;13.50;99.90;;;;;;5010734;28;20018;-84
2022/01/01 12:43:56;;;;;;;15.05;4.93;;;13.40;99.90;;;;;;4999300;28;20556;-85
2022/01/01 12:46:25;;;;;;;12.85;4.85;;;13.50;99.90;;;;;;4998826;28;20062;-85
2022/01/01 12:48:51;;;;;;;10.13;4.35;;;13.50;99.90;;;;;;4981376;28;20069;-85